sensor_id;sensor_type;location;lat;lon;timestamp;P1;durP1;ratioP1;P2;durP2;ratioP2
12774;SDS011;6451;42.630;23.382;2023-09-30T00:00:57;9.70;;;5.47;;
12774;SDS011;6451;42.630;23.382;2023-09-30T00:03:25;10.88;;;5.95;;
12774;SDS011;6451;42.630;23.382;2023-09-30T00:05:51;10.70;;;6.38;;
12774;SDS011;6451;42.630;23.382;2023-09-30T00:08:18;11.07;;;5.80;;
12774;SDS011;6451;42.630;23.382;2023-09-30T00:10:45;12.40;;;5.85;;
12774;SDS011;6451;42.630;23.382;2023-09-30T00:13:14;13.40;;;6.75;;
12774;SDS011;6451;42.630;23.382;2023-09-30T00:15:42;9.27;;;5.70;;
12774;SDS011;6451;42.630;23.382;2023-09-30T00:18:09;7.90;;;5.47;;
12774;SDS011;6451;42.630;23.382;2023-09-30T00:20:36;12.15;;;5.45;;
12774;SDS011;6451;42.630;23.382;2023-09-30T00:23:05;8.50;;;5.47;;
12774;SDS011;6451;42.630;23.382;2023-09-30T00:25:33;11.13;;;5.72;;
12774;SDS011;6451;42.630;23.382;2023-09-30T00:28:00;9.32;;;5.93;;
12774;SDS011;6451;42.630;23.382;2023-09-30T00:30:28;7.15;;;5.97;;
12774;SDS011;6451;42.630;23.382;2023-09-30T00:32:55;9.50;;;5.60;;
12774;SDS011;6451;42.630;23.382;2023-09-30T00:35:22;7.05;;;5.22;;
12774;SDS011;6451;42.630;23.382;2023-09-30T00:37:49;11.68;;;5.55;;
12774;SDS011;6451;42.630;23.382;2023-09-30T00:40:17;10.77;;;5.72;;
12774;SDS011;6451;42.630;23.382;2023-09-30T00:43:04;7.10;;;5.30;;
12774;SDS011;6451;42.630;23.382;2023-09-30T00:45:33;9.43;;;5.50;;
12774;SDS011;6451;42.630;23.382;2023-09-30T00:48:03;13.25;;;6.00;;
12774;SDS011;6451;42.630;23.382;2023-09-30T00:50:32;10.02;;;5.35;;
12774;SDS011;6451;42.630;23.382;2023-09-30T00:52:59;10.32;;;6.00;;
12774;SDS011;6451;42.630;23.382;2023-09-30T00:55:26;9.57;;;5.43;;
12774;SDS011;6451;42.630;23.382;2023-09-30T00:57:53;10.15;;;5.70;;
12774;SDS011;6451;42.630;23.382;2023-09-30T01:00:21;10.18;;;5.57;;
12774;SDS011;6451;42.630;23.382;2023-09-30T01:02:52;10.70;;;5.85;;
12774;SDS011;6451;42.630;23.382;2023-09-30T01:05:19;8.48;;;5.00;;
12774;SDS011;6451;42.630;23.382;2023-09-30T01:07:46;11.63;;;5.70;;
12774;SDS011;6451;42.630;23.382;2023-09-30T01:10:13;8.45;;;5.55;;
12774;SDS011;6451;42.630;23.382;2023-09-30T01:12:41;11.85;;;5.70;;
12774;SDS011;6451;42.630;23.382;2023-09-30T01:15:09;13.20;;;6.22;;
12774;SDS011;6451;42.630;23.382;2023-09-30T01:17:36;11.43;;;5.85;;
12774;SDS011;6451;42.630;23.382;2023-09-30T01:20:04;10.30;;;5.50;;
12774;SDS011;6451;42.630;23.382;2023-09-30T01:22:35;8.65;;;5.47;;
12774;SDS011;6451;42.630;23.382;2023-09-30T01:25:02;8.63;;;5.50;;
12774;SDS011;6451;42.630;23.382;2023-09-30T01:27:30;7.78;;;5.45;;
12774;SDS011;6451;42.630;23.382;2023-09-30T01:29:57;13.95;;;6.03;;
12774;SDS011;6451;42.630;23.382;2023-09-30T01:32:24;8.13;;;5.45;;
12774;SDS011;6451;42.630;23.382;2023-09-30T01:35:09;11.45;;;5.47;;
12774;SDS011;6451;42.630;23.382;2023-09-30T01:37:38;9.27;;;5.25;;
12774;SDS011;6451;42.630;23.382;2023-09-30T01:40:05;9.65;;;5.38;;
12774;SDS011;6451;42.630;23.382;2023-09-30T01:42:36;11.95;;;5.70;;
12774;SDS011;6451;42.630;23.382;2023-09-30T01:45:04;8.52;;;6.00;;
12774;SDS011;6451;42.630;23.382;2023-09-30T01:47:31;12.25;;;5.35;;
12774;SDS011;6451;42.630;23.382;2023-09-30T01:49:59;7.00;;;5.10;;
12774;SDS011;6451;42.630;23.382;2023-09-30T01:52:25;7.63;;;4.95;;
12774;SDS011;6451;42.630;23.382;2023-09-30T01:54:54;12.27;;;5.93;;
12774;SDS011;6451;42.630;23.382;2023-09-30T01:57:21;8.85;;;5.40;;
12774;SDS011;6451;42.630;23.382;2023-09-30T01:59:48;7.97;;;5.20;;
12774;SDS011;6451;42.630;23.382;2023-09-30T02:02:14;8.32;;;5.60;;
12774;SDS011;6451;42.630;23.382;2023-09-30T02:04:42;8.23;;;5.38;;
12774;SDS011;6451;42.630;23.382;2023-09-30T02:07:10;10.50;;;5.78;;
12774;SDS011;6451;42.630;23.382;2023-09-30T02:09:37;9.98;;;5.53;;
12774;SDS011;6451;42.630;23.382;2023-09-30T02:12:06;10.93;;;5.43;;
12774;SDS011;6451;42.630;23.382;2023-09-30T02:14:34;11.02;;;5.63;;
12774;SDS011;6451;42.630;23.382;2023-09-30T02:17:01;7.32;;;5.28;;
12774;SDS011;6451;42.630;23.382;2023-09-30T02:19:29;8.75;;;5.78;;
12774;SDS011;6451;42.630;23.382;2023-09-30T02:21:59;11.45;;;5.45;;
12774;SDS011;6451;42.630;23.382;2023-09-30T02:24:26;8.48;;;5.70;;
12774;SDS011;6451;42.630;23.382;2023-09-30T02:26:53;7.88;;;5.22;;
12774;SDS011;6451;42.630;23.382;2023-09-30T02:29:21;10.27;;;5.40;;
12774;SDS011;6451;42.630;23.382;2023-09-30T02:31:48;8.93;;;5.00;;
12774;SDS011;6451;42.630;23.382;2023-09-30T02:34:15;10.32;;;5.40;;
12774;SDS011;6451;42.630;23.382;2023-09-30T02:36:42;7.97;;;5.13;;
12774;SDS011;6451;42.630;23.382;2023-09-30T02:39:10;6.88;;;5.47;;
12774;SDS011;6451;42.630;23.382;2023-09-30T02:41:37;8.65;;;5.60;;
12774;SDS011;6451;42.630;23.382;2023-09-30T02:44:05;9.07;;;5.75;;
12774;SDS011;6451;42.630;23.382;2023-09-30T02:46:34;9.43;;;5.60;;
12774;SDS011;6451;42.630;23.382;2023-09-30T02:49:00;7.82;;;5.57;;
12774;SDS011;6451;42.630;23.382;2023-09-30T02:51:27;9.73;;;5.82;;
12774;SDS011;6451;42.630;23.382;2023-09-30T02:53:55;9.85;;;5.50;;
12774;SDS011;6451;42.630;23.382;2023-09-30T02:56:22;7.65;;;5.68;;
12774;SDS011;6451;42.630;23.382;2023-09-30T02:58:49;10.02;;;5.47;;
12774;SDS011;6451;42.630;23.382;2023-09-30T03:01:17;10.15;;;5.75;;
12774;SDS011;6451;42.630;23.382;2023-09-30T03:03:47;9.48;;;5.88;;
12774;SDS011;6451;42.630;23.382;2023-09-30T03:06:14;13.48;;;5.88;;
12774;SDS011;6451;42.630;23.382;2023-09-30T03:08:41;9.60;;;5.40;;
12774;SDS011;6451;42.630;23.382;2023-09-30T03:11:08;14.35;;;5.70;;
12774;SDS011;6451;42.630;23.382;2023-09-30T03:13:35;8.57;;;5.43;;
12774;SDS011;6451;42.630;23.382;2023-09-30T03:16:03;11.68;;;5.53;;
12774;SDS011;6451;42.630;23.382;2023-09-30T03:18:30;9.60;;;5.55;;
12774;SDS011;6451;42.630;23.382;2023-09-30T03:21:00;10.07;;;5.70;;
12774;SDS011;6451;42.630;23.382;2023-09-30T03:23:33;10.93;;;5.78;;
12774;SDS011;6451;42.630;23.382;2023-09-30T03:26:00;8.18;;;5.93;;
12774;SDS011;6451;42.630;23.382;2023-09-30T03:28:27;7.55;;;4.93;;
12774;SDS011;6451;42.630;23.382;2023-09-30T03:30:54;10.43;;;5.70;;
12774;SDS011;6451;42.630;23.382;2023-09-30T03:33:23;9.32;;;5.65;;
12774;SDS011;6451;42.630;23.382;2023-09-30T03:35:51;10.70;;;6.20;;
12774;SDS011;6451;42.630;23.382;2023-09-30T03:38:20;8.82;;;5.93;;
12774;SDS011;6451;42.630;23.382;2023-09-30T03:40:48;12.77;;;5.55;;
12774;SDS011;6451;42.630;23.382;2023-09-30T03:43:15;12.38;;;6.07;;
12774;SDS011;6451;42.630;23.382;2023-09-30T03:45:42;8.23;;;5.95;;
12774;SDS011;6451;42.630;23.382;2023-09-30T03:48:10;9.75;;;5.90;;
12774;SDS011;6451;42.630;23.382;2023-09-30T03:50:37;8.27;;;5.57;;
12774;SDS011;6451;42.630;23.382;2023-09-30T03:53:06;11.38;;;5.80;;
12774;SDS011;6451;42.630;23.382;2023-09-30T03:55:34;13.20;;;6.57;;
12774;SDS011;6451;42.630;23.382;2023-09-30T03:58:02;15.07;;;10.23;;
12774;SDS011;6451;42.630;23.382;2023-09-30T04:00:30;9.93;;;6.22;;
12774;SDS011;6451;42.630;23.382;2023-09-30T04:02:58;13.98;;;7.20;;
12774;SDS011;6451;42.630;23.382;2023-09-30T04:05:26;11.35;;;6.90;;
12774;SDS011;6451;42.630;23.382;2023-09-30T04:07:55;11.85;;;6.80;;
12774;SDS011;6451;42.630;23.382;2023-09-30T04:10:22;13.07;;;6.60;;
12774;SDS011;6451;42.630;23.382;2023-09-30T04:12:50;15.43;;;6.72;;
12774;SDS011;6451;42.630;23.382;2023-09-30T04:15:18;12.50;;;6.40;;
12774;SDS011;6451;42.630;23.382;2023-09-30T04:17:45;9.48;;;5.93;;
12774;SDS011;6451;42.630;23.382;2023-09-30T04:20:11;9.67;;;6.17;;
12774;SDS011;6451;42.630;23.382;2023-09-30T04:22:46;10.05;;;6.43;;
12774;SDS011;6451;42.630;23.382;2023-09-30T04:25:14;8.60;;;5.53;;
12774;SDS011;6451;42.630;23.382;2023-09-30T04:27:42;8.83;;;6.20;;
12774;SDS011;6451;42.630;23.382;2023-09-30T04:30:12;12.87;;;6.30;;
12774;SDS011;6451;42.630;23.382;2023-09-30T04:32:40;11.43;;;6.63;;
12774;SDS011;6451;42.630;23.382;2023-09-30T04:35:08;8.07;;;6.70;;
12774;SDS011;6451;42.630;23.382;2023-09-30T04:37:35;12.13;;;6.73;;
12774;SDS011;6451;42.630;23.382;2023-09-30T04:40:03;11.70;;;7.30;;
12774;SDS011;6451;42.630;23.382;2023-09-30T04:42:32;10.27;;;6.83;;
12774;SDS011;6451;42.630;23.382;2023-09-30T04:45:01;14.17;;;7.07;;
12774;SDS011;6451;42.630;23.382;2023-09-30T04:47:33;10.67;;;7.20;;
12774;SDS011;6451;42.630;23.382;2023-09-30T04:50:00;11.30;;;7.40;;
12774;SDS011;6451;42.630;23.382;2023-09-30T04:52:30;7.70;;;6.90;;
12774;SDS011;6451;42.630;23.382;2023-09-30T04:54:57;13.23;;;6.70;;
12774;SDS011;6451;42.630;23.382;2023-09-30T04:57:25;9.73;;;7.17;;
12774;SDS011;6451;42.630;23.382;2023-09-30T04:59:52;10.57;;;7.10;;
12774;SDS011;6451;42.630;23.382;2023-09-30T05:02:20;10.83;;;6.97;;
12774;SDS011;6451;42.630;23.382;2023-09-30T05:04:48;9.70;;;7.23;;
12774;SDS011;6451;42.630;23.382;2023-09-30T05:07:15;11.03;;;6.77;;
12774;SDS011;6451;42.630;23.382;2023-09-30T05:09:42;11.23;;;7.00;;
12774;SDS011;6451;42.630;23.382;2023-09-30T05:12:09;15.83;;;10.93;;
12774;SDS011;6451;42.630;23.382;2023-09-30T05:14:36;11.20;;;7.67;;
12774;SDS011;6451;42.630;23.382;2023-09-30T05:17:04;14.60;;;11.50;;
12774;SDS011;6451;42.630;23.382;2023-09-30T05:19:31;11.00;;;9.17;;
12774;SDS011;6451;42.630;23.382;2023-09-30T05:21:59;12.57;;;8.67;;
12774;SDS011;6451;42.630;23.382;2023-09-30T05:24:28;11.73;;;8.93;;
12774;SDS011;6451;42.630;23.382;2023-09-30T05:26:55;11.53;;;7.40;;
12774;SDS011;6451;42.630;23.382;2023-09-30T05:29:22;10.20;;;7.33;;
12774;SDS011;6451;42.630;23.382;2023-09-30T05:31:49;10.73;;;6.57;;
12774;SDS011;6451;42.630;23.382;2023-09-30T05:34:16;10.45;;;6.55;;
12774;SDS011;6451;42.630;23.382;2023-09-30T05:36:42;12.97;;;7.27;;
12774;SDS011;6451;42.630;23.382;2023-09-30T05:39:13;10.95;;;6.57;;
12774;SDS011;6451;42.630;23.382;2023-09-30T05:41:44;14.98;;;6.13;;
12774;SDS011;6451;42.630;23.382;2023-09-30T05:44:12;14.27;;;6.22;;
12774;SDS011;6451;42.630;23.382;2023-09-30T05:46:39;15.02;;;6.65;;
12774;SDS011;6451;42.630;23.382;2023-09-30T05:49:07;16.00;;;6.53;;
12774;SDS011;6451;42.630;23.382;2023-09-30T05:51:38;13.57;;;6.47;;
12774;SDS011;6451;42.630;23.382;2023-09-30T05:54:06;12.70;;;7.30;;
12774;SDS011;6451;42.630;23.382;2023-09-30T05:56:36;15.65;;;7.07;;
12774;SDS011;6451;42.630;23.382;2023-09-30T05:59:03;11.80;;;6.47;;
12774;SDS011;6451;42.630;23.382;2023-09-30T06:01:33;10.10;;;6.50;;
12774;SDS011;6451;42.630;23.382;2023-09-30T06:04:02;11.93;;;6.53;;
12774;SDS011;6451;42.630;23.382;2023-09-30T06:06:30;12.48;;;7.03;;
12774;SDS011;6451;42.630;23.382;2023-09-30T06:08:58;17.05;;;7.15;;
12774;SDS011;6451;42.630;23.382;2023-09-30T06:11:25;11.32;;;7.50;;
12774;SDS011;6451;42.630;23.382;2023-09-30T06:13:55;13.80;;;7.68;;
12774;SDS011;6451;42.630;23.382;2023-09-30T06:16:24;18.27;;;8.07;;
12774;SDS011;6451;42.630;23.382;2023-09-30T06:18:51;10.10;;;7.93;;
12774;SDS011;6451;42.630;23.382;2023-09-30T06:21:18;12.20;;;8.15;;
12774;SDS011;6451;42.630;23.382;2023-09-30T06:23:46;13.35;;;9.75;;
12774;SDS011;6451;42.630;23.382;2023-09-30T06:26:13;10.95;;;8.25;;
12774;SDS011;6451;42.630;23.382;2023-09-30T06:28:42;16.30;;;8.65;;
12774;SDS011;6451;42.630;23.382;2023-09-30T06:31:11;14.85;;;8.85;;
12774;SDS011;6451;42.630;23.382;2023-09-30T06:33:38;16.52;;;8.73;;
12774;SDS011;6451;42.630;23.382;2023-09-30T06:36:08;14.10;;;7.65;;
12774;SDS011;6451;42.630;23.382;2023-09-30T06:38:36;15.27;;;7.30;;
12774;SDS011;6451;42.630;23.382;2023-09-30T06:41:04;15.90;;;7.45;;
12774;SDS011;6451;42.630;23.382;2023-09-30T06:43:31;13.23;;;7.38;;
12774;SDS011;6451;42.630;23.382;2023-09-30T06:46:05;19.52;;;7.15;;
12774;SDS011;6451;42.630;23.382;2023-09-30T06:48:34;10.80;;;7.15;;
12774;SDS011;6451;42.630;23.382;2023-09-30T06:51:01;12.57;;;6.53;;
12774;SDS011;6451;42.630;23.382;2023-09-30T06:53:28;12.73;;;7.28;;
12774;SDS011;6451;42.630;23.382;2023-09-30T06:55:55;16.80;;;6.45;;
12774;SDS011;6451;42.630;23.382;2023-09-30T06:58:22;13.02;;;6.90;;
12774;SDS011;6451;42.630;23.382;2023-09-30T07:00:50;15.80;;;7.10;;
12774;SDS011;6451;42.630;23.382;2023-09-30T07:03:18;17.73;;;7.97;;
12774;SDS011;6451;42.630;23.382;2023-09-30T07:05:48;10.70;;;6.53;;
12774;SDS011;6451;42.630;23.382;2023-09-30T07:08:15;14.38;;;7.10;;
12774;SDS011;6451;42.630;23.382;2023-09-30T07:10:43;11.82;;;6.70;;
12774;SDS011;6451;42.630;23.382;2023-09-30T07:13:11;13.15;;;6.68;;
12774;SDS011;6451;42.630;23.382;2023-09-30T07:15:38;16.25;;;7.38;;
12774;SDS011;6451;42.630;23.382;2023-09-30T07:18:06;12.95;;;6.93;;
12774;SDS011;6451;42.630;23.382;2023-09-30T07:20:33;15.45;;;7.32;;
12774;SDS011;6451;42.630;23.382;2023-09-30T07:23:02;15.90;;;6.80;;
12774;SDS011;6451;42.630;23.382;2023-09-30T07:25:30;10.73;;;6.20;;
12774;SDS011;6451;42.630;23.382;2023-09-30T07:27:58;15.70;;;6.95;;
12774;SDS011;6451;42.630;23.382;2023-09-30T07:30:25;16.58;;;6.57;;
12774;SDS011;6451;42.630;23.382;2023-09-30T07:32:53;13.73;;;5.90;;
12774;SDS011;6451;42.630;23.382;2023-09-30T07:35:20;12.48;;;6.60;;
12774;SDS011;6451;42.630;23.382;2023-09-30T07:37:48;11.50;;;6.10;;
12774;SDS011;6451;42.630;23.382;2023-09-30T07:40:19;13.00;;;6.13;;
12774;SDS011;6451;42.630;23.382;2023-09-30T07:42:47;13.55;;;6.07;;
12774;SDS011;6451;42.630;23.382;2023-09-30T07:45:15;11.52;;;6.30;;
12774;SDS011;6451;42.630;23.382;2023-09-30T07:47:43;13.40;;;6.07;;
12774;SDS011;6451;42.630;23.382;2023-09-30T07:50:11;10.35;;;5.30;;
12774;SDS011;6451;42.630;23.382;2023-09-30T07:52:39;16.48;;;5.53;;
12774;SDS011;6451;42.630;23.382;2023-09-30T07:55:07;11.48;;;5.80;;
12774;SDS011;6451;42.630;23.382;2023-09-30T07:57:36;9.90;;;5.47;;
12774;SDS011;6451;42.630;23.382;2023-09-30T08:00:05;12.70;;;4.85;;
12774;SDS011;6451;42.630;23.382;2023-09-30T08:02:35;13.05;;;4.80;;
12774;SDS011;6451;42.630;23.382;2023-09-30T08:05:03;11.65;;;4.93;;
12774;SDS011;6451;42.630;23.382;2023-09-30T08:07:33;8.90;;;4.78;;
12774;SDS011;6451;42.630;23.382;2023-09-30T08:10:00;12.55;;;5.38;;
12774;SDS011;6451;42.630;23.382;2023-09-30T08:12:29;11.23;;;5.03;;
12774;SDS011;6451;42.630;23.382;2023-09-30T08:14:58;10.48;;;4.95;;
12774;SDS011;6451;42.630;23.382;2023-09-30T08:17:25;14.35;;;5.15;;
12774;SDS011;6451;42.630;23.382;2023-09-30T08:19:52;9.57;;;5.10;;
12774;SDS011;6451;42.630;23.382;2023-09-30T08:22:19;12.48;;;5.20;;
12774;SDS011;6451;42.630;23.382;2023-09-30T08:24:50;8.32;;;4.75;;
12774;SDS011;6451;42.630;23.382;2023-09-30T08:27:18;10.27;;;5.78;;
12774;SDS011;6451;42.630;23.382;2023-09-30T08:29:45;9.52;;;5.55;;
12774;SDS011;6451;42.630;23.382;2023-09-30T08:32:14;8.70;;;5.15;;
12774;SDS011;6451;42.630;23.382;2023-09-30T08:34:40;11.20;;;5.38;;
12774;SDS011;6451;42.630;23.382;2023-09-30T08:37:08;15.02;;;5.90;;
12774;SDS011;6451;42.630;23.382;2023-09-30T08:39:37;9.63;;;6.00;;
12774;SDS011;6451;42.630;23.382;2023-09-30T08:42:06;8.48;;;5.68;;
12774;SDS011;6451;42.630;23.382;2023-09-30T08:44:36;12.55;;;6.78;;
12774;SDS011;6451;42.630;23.382;2023-09-30T08:47:05;11.00;;;5.93;;
12774;SDS011;6451;42.630;23.382;2023-09-30T08:49:35;10.48;;;6.57;;
12774;SDS011;6451;42.630;23.382;2023-09-30T08:52:05;12.02;;;6.70;;
12774;SDS011;6451;42.630;23.382;2023-09-30T08:54:32;13.48;;;6.55;;
12774;SDS011;6451;42.630;23.382;2023-09-30T08:57:00;14.13;;;6.40;;
12774;SDS011;6451;42.630;23.382;2023-09-30T08:59:30;16.85;;;6.45;;
12774;SDS011;6451;42.630;23.382;2023-09-30T09:02:01;12.75;;;6.68;;
12774;SDS011;6451;42.630;23.382;2023-09-30T09:04:28;11.50;;;6.65;;
12774;SDS011;6451;42.630;23.382;2023-09-30T09:06:57;8.95;;;7.07;;
12774;SDS011;6451;42.630;23.382;2023-09-30T09:09:24;11.40;;;7.15;;
12774;SDS011;6451;42.630;23.382;2023-09-30T09:11:51;14.45;;;7.00;;
12774;SDS011;6451;42.630;23.382;2023-09-30T09:14:18;11.75;;;6.88;;
12774;SDS011;6451;42.630;23.382;2023-09-30T09:16:51;13.77;;;6.55;;
12774;SDS011;6451;42.630;23.382;2023-09-30T09:19:19;11.00;;;7.18;;
12774;SDS011;6451;42.630;23.382;2023-09-30T09:21:53;8.57;;;6.60;;
12774;SDS011;6451;42.630;23.382;2023-09-30T09:24:30;12.63;;;6.32;;
12774;SDS011;6451;42.630;23.382;2023-09-30T09:27:04;16.45;;;6.70;;
12774;SDS011;6451;42.630;23.382;2023-09-30T09:29:32;14.02;;;6.80;;
12774;SDS011;6451;42.630;23.382;2023-09-30T09:32:09;9.80;;;6.60;;
12774;SDS011;6451;42.630;23.382;2023-09-30T09:34:37;10.55;;;6.22;;
12774;SDS011;6451;42.630;23.382;2023-09-30T09:39:51;9.95;;;6.85;;
12774;SDS011;6451;42.630;23.382;2023-09-30T09:42:25;10.65;;;5.78;;
12774;SDS011;6451;42.630;23.382;2023-09-30T09:44:54;9.85;;;6.43;;
12774;SDS011;6451;42.630;23.382;2023-09-30T09:47:22;15.55;;;6.38;;
12774;SDS011;6451;42.630;23.382;2023-09-30T09:49:50;12.40;;;5.90;;
12774;SDS011;6451;42.630;23.382;2023-09-30T09:52:18;10.40;;;6.32;;
12774;SDS011;6451;42.630;23.382;2023-09-30T09:54:45;10.60;;;6.28;;
12774;SDS011;6451;42.630;23.382;2023-09-30T09:57:14;11.82;;;6.15;;
12774;SDS011;6451;42.630;23.382;2023-09-30T09:59:43;9.40;;;5.80;;
12774;SDS011;6451;42.630;23.382;2023-09-30T10:02:12;12.45;;;5.85;;
12774;SDS011;6451;42.630;23.382;2023-09-30T10:04:41;7.93;;;5.20;;
12774;SDS011;6451;42.630;23.382;2023-09-30T10:07:09;11.70;;;5.63;;
12774;SDS011;6451;42.630;23.382;2023-09-30T10:09:41;8.13;;;5.85;;
12774;SDS011;6451;42.630;23.382;2023-09-30T10:12:15;11.77;;;6.03;;
12774;SDS011;6451;42.630;23.382;2023-09-30T10:14:43;12.38;;;5.80;;
12774;SDS011;6451;42.630;23.382;2023-09-30T10:17:10;10.80;;;5.88;;
12774;SDS011;6451;42.630;23.382;2023-09-30T10:22:30;11.95;;;5.65;;
12774;SDS011;6451;42.630;23.382;2023-09-30T10:24:57;10.90;;;5.38;;
12774;SDS011;6451;42.630;23.382;2023-09-30T10:27:30;7.22;;;4.57;;
12774;SDS011;6451;42.630;23.382;2023-09-30T10:29:57;7.90;;;4.13;;
12774;SDS011;6451;42.630;23.382;2023-09-30T10:35:46;12.75;;;4.65;;
12774;SDS011;6451;42.630;23.382;2023-09-30T10:41:08;6.63;;;4.47;;
12774;SDS011;6451;42.630;23.382;2023-09-30T10:43:39;7.80;;;4.22;;
12774;SDS011;6451;42.630;23.382;2023-09-30T10:51:59;5.53;;;3.72;;
12774;SDS011;6451;42.630;23.382;2023-09-30T10:54:26;7.25;;;3.83;;
12774;SDS011;6451;42.630;23.382;2023-09-30T10:56:55;7.22;;;3.90;;
12774;SDS011;6451;42.630;23.382;2023-09-30T10:59:26;6.40;;;3.55;;
12774;SDS011;6451;42.630;23.382;2023-09-30T11:01:55;5.60;;;3.40;;
12774;SDS011;6451;42.630;23.382;2023-09-30T11:04:23;7.75;;;3.42;;
12774;SDS011;6451;42.630;23.382;2023-09-30T11:06:52;6.00;;;3.22;;
12774;SDS011;6451;42.630;23.382;2023-09-30T11:09:19;6.68;;;3.55;;
12774;SDS011;6451;42.630;23.382;2023-09-30T11:11:48;9.23;;;3.80;;
12774;SDS011;6451;42.630;23.382;2023-09-30T11:14:16;9.88;;;4.00;;
12774;SDS011;6451;42.630;23.382;2023-09-30T11:16:45;8.15;;;4.20;;
12774;SDS011;6451;42.630;23.382;2023-09-30T11:19:15;8.65;;;3.70;;
12774;SDS011;6451;42.630;23.382;2023-09-30T11:21:42;12.93;;;4.05;;
12774;SDS011;6451;42.630;23.382;2023-09-30T11:24:10;5.93;;;3.60;;
12774;SDS011;6451;42.630;23.382;2023-09-30T11:26:38;8.05;;;3.78;;
12774;SDS011;6451;42.630;23.382;2023-09-30T11:29:06;6.95;;;4.85;;
12774;SDS011;6451;42.630;23.382;2023-09-30T11:31:39;8.07;;;5.15;;
12774;SDS011;6451;42.630;23.382;2023-09-30T11:34:07;5.63;;;3.63;;
12774;SDS011;6451;42.630;23.382;2023-09-30T11:36:35;4.60;;;3.58;;
12774;SDS011;6451;42.630;23.382;2023-09-30T11:39:04;8.98;;;3.72;;
12774;SDS011;6451;42.630;23.382;2023-09-30T11:41:35;11.18;;;3.78;;
12774;SDS011;6451;42.630;23.382;2023-09-30T11:44:06;7.47;;;3.72;;
12774;SDS011;6451;42.630;23.382;2023-09-30T11:46:47;7.57;;;3.97;;
12774;SDS011;6451;42.630;23.382;2023-09-30T11:49:25;9.30;;;4.10;;
12774;SDS011;6451;42.630;23.382;2023-09-30T11:51:53;8.38;;;4.00;;
12774;SDS011;6451;42.630;23.382;2023-09-30T11:54:21;7.05;;;4.13;;
12774;SDS011;6451;42.630;23.382;2023-09-30T11:56:48;5.30;;;4.00;;
12774;SDS011;6451;42.630;23.382;2023-09-30T11:59:16;7.90;;;4.45;;
12774;SDS011;6451;42.630;23.382;2023-09-30T12:01:45;6.20;;;4.05;;
12774;SDS011;6451;42.630;23.382;2023-09-30T12:04:14;7.10;;;4.20;;
12774;SDS011;6451;42.630;23.382;2023-09-30T12:06:44;8.15;;;4.50;;
12774;SDS011;6451;42.630;23.382;2023-09-30T12:09:11;9.35;;;4.30;;
12774;SDS011;6451;42.630;23.382;2023-09-30T12:11:39;8.10;;;4.30;;
12774;SDS011;6451;42.630;23.382;2023-09-30T12:14:09;7.75;;;4.65;;
12774;SDS011;6451;42.630;23.382;2023-09-30T12:16:37;10.90;;;4.82;;
12774;SDS011;6451;42.630;23.382;2023-09-30T12:19:04;8.15;;;4.45;;
12774;SDS011;6451;42.630;23.382;2023-09-30T12:21:32;7.90;;;4.35;;
12774;SDS011;6451;42.630;23.382;2023-09-30T12:24:01;7.55;;;4.05;;
12774;SDS011;6451;42.630;23.382;2023-09-30T12:26:28;15.38;;;4.60;;
12774;SDS011;6451;42.630;23.382;2023-09-30T12:28:55;10.57;;;4.78;;
12774;SDS011;6451;42.630;23.382;2023-09-30T12:31:23;6.82;;;4.78;;
12774;SDS011;6451;42.630;23.382;2023-09-30T12:33:50;11.27;;;5.10;;
12774;SDS011;6451;42.630;23.382;2023-09-30T12:36:17;7.05;;;4.90;;
12774;SDS011;6451;42.630;23.382;2023-09-30T12:38:45;12.07;;;4.85;;
12774;SDS011;6451;42.630;23.382;2023-09-30T12:41:14;8.02;;;4.57;;
12774;SDS011;6451;42.630;23.382;2023-09-30T12:43:44;6.20;;;4.82;;
12774;SDS011;6451;42.630;23.382;2023-09-30T12:46:11;7.57;;;4.50;;
12774;SDS011;6451;42.630;23.382;2023-09-30T12:48:39;8.07;;;4.90;;
12774;SDS011;6451;42.630;23.382;2023-09-30T12:51:10;9.88;;;5.30;;
12774;SDS011;6451;42.630;23.382;2023-09-30T12:53:37;12.35;;;5.22;;
12774;SDS011;6451;42.630;23.382;2023-09-30T12:56:04;7.45;;;5.53;;
12774;SDS011;6451;42.630;23.382;2023-09-30T12:58:33;8.93;;;4.28;;
12774;SDS011;6451;42.630;23.382;2023-09-30T13:01:00;7.13;;;4.40;;
12774;SDS011;6451;42.630;23.382;2023-09-30T13:03:27;9.00;;;4.45;;
12774;SDS011;6451;42.630;23.382;2023-09-30T13:05:54;7.32;;;4.70;;
12774;SDS011;6451;42.630;23.382;2023-09-30T13:08:21;8.85;;;4.10;;
12774;SDS011;6451;42.630;23.382;2023-09-30T13:10:48;6.40;;;4.70;;
12774;SDS011;6451;42.630;23.382;2023-09-30T13:13:17;11.52;;;4.60;;
12774;SDS011;6451;42.630;23.382;2023-09-30T13:15:45;8.10;;;5.00;;
12774;SDS011;6451;42.630;23.382;2023-09-30T13:18:12;10.20;;;4.65;;
12774;SDS011;6451;42.630;23.382;2023-09-30T13:20:39;9.27;;;4.97;;
12774;SDS011;6451;42.630;23.382;2023-09-30T13:23:06;8.90;;;4.70;;
12774;SDS011;6451;42.630;23.382;2023-09-30T13:25:33;4.97;;;4.45;;
12774;SDS011;6451;42.630;23.382;2023-09-30T13:28:02;6.97;;;4.47;;
12774;SDS011;6451;42.630;23.382;2023-09-30T13:30:29;8.65;;;4.43;;
12774;SDS011;6451;42.630;23.382;2023-09-30T13:32:59;9.48;;;4.30;;
12774;SDS011;6451;42.630;23.382;2023-09-30T13:35:26;8.52;;;4.25;;
12774;SDS011;6451;42.630;23.382;2023-09-30T13:37:53;5.82;;;4.20;;
12774;SDS011;6451;42.630;23.382;2023-09-30T13:40:20;7.05;;;4.03;;
12774;SDS011;6451;42.630;23.382;2023-09-30T13:42:47;5.13;;;4.32;;
12774;SDS011;6451;42.630;23.382;2023-09-30T13:45:14;8.35;;;4.65;;
12774;SDS011;6451;42.630;23.382;2023-09-30T13:47:42;9.95;;;4.68;;
12774;SDS011;6451;42.630;23.382;2023-09-30T13:50:10;8.38;;;5.03;;
12774;SDS011;6451;42.630;23.382;2023-09-30T13:52:37;6.45;;;4.38;;
12774;SDS011;6451;42.630;23.382;2023-09-30T13:55:05;9.18;;;4.40;;
12774;SDS011;6451;42.630;23.382;2023-09-30T13:57:32;9.65;;;4.28;;
12774;SDS011;6451;42.630;23.382;2023-09-30T14:00:00;5.05;;;4.55;;
12774;SDS011;6451;42.630;23.382;2023-09-30T14:02:28;8.93;;;5.07;;
12774;SDS011;6451;42.630;23.382;2023-09-30T14:04:55;12.05;;;5.07;;
12774;SDS011;6451;42.630;23.382;2023-09-30T14:07:23;6.78;;;4.80;;
12774;SDS011;6451;42.630;23.382;2023-09-30T14:09:51;9.63;;;4.97;;
12774;SDS011;6451;42.630;23.382;2023-09-30T14:12:19;10.32;;;4.85;;
12774;SDS011;6451;42.630;23.382;2023-09-30T14:14:45;9.57;;;4.65;;
12774;SDS011;6451;42.630;23.382;2023-09-30T14:17:13;10.32;;;5.00;;
12774;SDS011;6451;42.630;23.382;2023-09-30T14:19:41;14.15;;;4.78;;
12774;SDS011;6451;42.630;23.382;2023-09-30T14:22:08;9.32;;;5.10;;
12774;SDS011;6451;42.630;23.382;2023-09-30T14:24:36;10.68;;;4.95;;
12774;SDS011;6451;42.630;23.382;2023-09-30T14:27:03;7.75;;;4.60;;
12774;SDS011;6451;42.630;23.382;2023-09-30T14:29:31;8.85;;;4.45;;
12774;SDS011;6451;42.630;23.382;2023-09-30T14:31:58;10.10;;;4.40;;
12774;SDS011;6451;42.630;23.382;2023-09-30T14:34:25;8.52;;;3.83;;
12774;SDS011;6451;42.630;23.382;2023-09-30T14:36:52;7.65;;;4.00;;
12774;SDS011;6451;42.630;23.382;2023-09-30T14:39:19;9.50;;;4.50;;
12774;SDS011;6451;42.630;23.382;2023-09-30T14:41:49;8.18;;;4.40;;
12774;SDS011;6451;42.630;23.382;2023-09-30T14:44:16;5.90;;;4.10;;
12774;SDS011;6451;42.630;23.382;2023-09-30T14:46:43;8.88;;;4.38;;
12774;SDS011;6451;42.630;23.382;2023-09-30T14:49:10;8.23;;;4.22;;
12774;SDS011;6451;42.630;23.382;2023-09-30T14:51:37;8.23;;;4.72;;
12774;SDS011;6451;42.630;23.382;2023-09-30T14:54:04;9.63;;;3.95;;
12774;SDS011;6451;42.630;23.382;2023-09-30T14:56:31;7.75;;;4.38;;
12774;SDS011;6451;42.630;23.382;2023-09-30T14:59:00;5.70;;;4.10;;
12774;SDS011;6451;42.630;23.382;2023-09-30T15:01:27;7.50;;;4.25;;
12774;SDS011;6451;42.630;23.382;2023-09-30T15:03:54;11.27;;;4.22;;